createdAt,value
2017-04-27T21:40:44.424Z,23.88
2017-04-27T21:43:12.793Z,25.46
2017-04-27T21:45:41.169Z,25.26
2017-04-27T21:51:02.861Z,24.38
2017-04-27T21:53:41.032Z,26.10
2017-04-27T21:59:51.012Z,22.34
2017-04-27T22:02:39.447Z,21.06
2017-04-27T22:07:59.621Z,20.38
2017-04-27T22:10:26.552Z,18.18
2017-04-27T22:14:28.006Z,19.98
2017-04-27T22:16:56.606Z,17.80
2017-04-27T22:19:41.657Z,17.22
2017-04-27T22:25:04.672Z,17.82
2017-04-27T22:27:40.865Z,20.86
2017-04-27T22:30:09.276Z,24.34
2017-04-27T22:32:41.364Z,28.28
2017-04-27T22:35:09.775Z,29.46
2017-04-27T22:37:41.485Z,30.64
2017-04-27T22:40:09.893Z,31.16
2017-04-27T22:42:41.604Z,32.44
2017-04-27T22:45:10.745Z,33.08
2017-04-27T22:47:42.669Z,34.92
2017-04-27T22:50:11.842Z,36.04
2017-04-27T22:52:40.845Z,36.22
2017-04-27T22:55:09.233Z,33.82
2017-04-27T22:57:42.049Z,34.16
2017-04-27T23:00:10.444Z,37.28
2017-04-27T23:02:42.398Z,37.52
2017-04-27T23:05:10.765Z,36.20
2017-04-27T23:07:42.624Z,35.52
2017-04-27T23:13:04.656Z,36.44
2017-04-27T23:15:40.983Z,35.06
2017-04-27T23:23:42.196Z,34.94
2017-04-27T23:31:54.251Z,33.84
2017-04-27T23:34:28.701Z,34.12
2017-04-27T23:36:57.114Z,32.52
2017-04-27T23:39:26.232Z,33.16
2017-04-27T23:41:54.600Z,35.06
2017-04-27T23:44:23.753Z,33.38
2017-04-27T23:46:52.141Z,30.96
2017-04-27T23:49:20.553Z,33.20
2017-04-27T23:51:48.961Z,31.44
2017-04-27T23:54:27.915Z,30.96
2017-04-27T23:56:56.349Z,31.22
2017-04-27T23:59:24.720Z,31.58
